Time;durP1;ratioP1;P1;durP2;ratioP2;P2;SDS_P1;SDS_P2;PMS_P1;PMS_P2;Temp;Humidity;BMP_temperature;BMP_pressure;BME280_temperature;BME280_humidity;BME280_pressure;Samples;Min_cycle;Max_cycle;Signal;HPM_P1;HPM_P2
2023/05/13 00:01:17;;;;;;;9.40;2.37;;;11.20;99.90;;;11.91;100.00;98303.97;4925661;29;20519;-77
2023/05/13 00:03:46;;;;;;;6.47;2.50;;;11.20;99.90;;;11.90;100.00;98306.81;4925995;29;20506;-79
2023/05/13 00:06:15;;;;;;;7.40;2.23;;;11.20;99.90;;;11.85;100.00;98309.16;4925999;29;20603;-77
2023/05/13 00:08:44;;;;;;;3.10;2.63;;;11.20;99.90;;;11.81;100.00;98307.91;4926062;29;20474;-77
2023/05/13 00:11:12;;;;;;;5.27;2.23;;;11.10;99.90;;;11.85;100.00;98311.78;4926536;29;21060;-77
2023/05/13 00:13:41;;;;;;;2.93;2.23;;;11.10;99.90;;;11.78;100.00;98308.31;4924729;29;20475;-77
2023/05/13 00:16:12;;;;;;;4.93;2.53;;;11.00;99.90;;;11.76;100.00;98305.06;4925506;29;20573;-78
2023/05/13 00:18:40;;;;;;;2.70;1.97;;;11.00;99.90;;;11.66;100.00;98305.34;4926056;29;20471;-78
2023/05/13 00:21:09;;;;;;;6.30;3.13;;;11.00;99.90;;;11.67;100.00;98306.16;4925134;29;20458;-77
2023/05/13 00:23:38;;;;;;;5.47;2.63;;;10.90;99.90;;;11.65;100.00;98310.78;4925053;29;20506;-77
2023/05/13 00:26:07;;;;;;;5.80;2.23;;;10.90;99.90;;;11.66;100.00;98304.53;4926044;29;20549;-77
2023/05/13 00:28:36;;;;;;;2.70;2.50;;;10.90;99.90;;;11.59;100.00;98305.28;4925225;29;20557;-78
2023/05/13 00:31:05;;;;;;;6.00;2.40;;;10.90;99.90;;;11.53;100.00;98303.41;4923165;29;20466;-77
2023/05/13 00:33:36;;;;;;;6.23;2.70;;;10.90;99.90;;;11.50;100.00;98306.41;4922302;29;20831;-80
2023/05/13 00:36:06;;;;;;;6.20;2.63;;;10.80;99.90;;;11.50;100.00;98305.59;4924813;29;21101;-77
2023/05/13 00:38:35;;;;;;;6.00;2.80;;;10.80;99.90;;;11.44;100.00;98304.53;4923685;29;20477;-80
2023/05/13 00:41:04;;;;;;;6.27;2.97;;;10.80;99.90;;;11.43;100.00;98313.38;4924158;29;20525;-77
2023/05/13 00:43:33;;;;;;;3.30;2.43;;;10.70;99.90;;;11.40;100.00;98311.13;4919721;29;20572;-77
2023/05/13 00:46:03;;;;;;;5.60;2.17;;;10.70;99.90;;;11.38;100.00;98313.13;4925078;29;20482;-77
2023/05/13 00:48:34;;;;;;;2.60;2.40;;;10.70;99.90;;;11.39;100.00;98313.94;4920750;29;20502;-78
2023/05/13 00:51:04;;;;;;;3.30;2.60;;;10.60;99.90;;;11.32;100.00;98310.41;4922087;29;20573;-77
2023/05/13 00:53:33;;;;;;;5.70;2.63;;;10.60;99.90;;;11.26;100.00;98306.75;4924544;29;20960;-77
2023/05/13 00:56:02;;;;;;;5.60;2.60;;;10.60;99.90;;;11.22;100.00;98313.34;4922022;29;20473;-76
2023/05/13 00:58:30;;;;;;;5.33;2.40;;;10.50;99.90;;;11.20;100.00;98315.34;4923090;29;20569;-77
2023/05/13 01:01:13;;;;;;;2.30;2.00;;;10.50;99.90;;;11.21;100.00;98309.09;4922759;29;20500;-77
2023/05/13 01:03:53;;;;;;;3.13;2.70;;;10.50;99.90;;;11.23;100.00;98314.16;4920870;29;20522;-77
2023/05/13 01:06:36;;;;;;;6.43;2.33;;;10.40;99.90;;;11.20;100.00;98309.28;4921871;29;21028;-77
2023/05/13 01:09:16;;;;;;;3.77;2.53;;;10.50;99.90;;;11.11;100.00;98303.34;4919560;29;20494;-77
2023/05/13 01:11:49;;;;;;;3.00;2.40;;;10.50;99.90;;;11.09;100.00;98292.25;4919103;29;20533;-76
2023/05/13 01:14:29;;;;;;;13.83;2.53;;;10.40;99.90;;;11.05;100.00;98301.47;4921780;29;20529;-77
2023/05/13 01:17:07;;;;;;;2.60;2.40;;;10.30;99.90;;;11.03;100.00;98303.47;4922982;29;20466;-79
2023/05/13 01:19:44;;;;;;;3.10;2.80;;;10.30;99.90;;;11.00;100.00;98309.84;4921834;29;20471;-77
2023/05/13 01:22:14;;;;;;;6.63;2.60;;;10.30;99.90;;;10.97;100.00;98299.75;4921357;29;20969;-77
2023/05/13 01:24:44;;;;;;;10.50;2.73;;;10.30;99.90;;;10.93;100.00;98301.13;4922130;29;21088;-77
2023/05/13 01:27:14;;;;;;;4.23;2.47;;;10.30;99.90;;;10.93;100.00;98300.34;4922746;29;20477;-77
2023/05/13 01:29:43;;;;;;;5.73;2.37;;;10.30;99.90;;;10.93;100.00;98292.47;4917838;29;20705;-77
2023/05/13 01:32:12;;;;;;;9.40;2.50;;;10.30;99.90;;;10.92;100.00;98286.44;4920918;29;20466;-77
2023/05/13 01:34:43;;;;;;;2.60;2.40;;;10.20;99.90;;;10.89;100.00;98291.22;4921780;29;20470;-78
2023/05/13 01:37:16;;;;;;;2.60;2.10;;;10.20;99.90;;;10.88;100.00;98289.59;4920030;29;20493;-77
2023/05/13 01:39:45;;;;;;;9.00;2.50;;;10.20;99.90;;;10.81;100.00;98294.75;4922731;29;20466;-77
2023/05/13 01:42:15;;;;;;;5.27;2.90;;;10.20;99.90;;;10.82;100.00;98285.09;4920325;29;20482;-77
2023/05/13 01:44:43;;;;;;;2.53;2.20;;;10.10;99.90;;;10.75;100.00;98279.78;4922727;29;20586;-77
2023/05/13 01:47:12;;;;;;;2.17;1.90;;;10.10;99.90;;;10.74;100.00;98288.63;4921531;29;20565;-77
2023/05/13 01:49:40;;;;;;;4.47;2.23;;;10.10;99.90;;;10.74;100.00;98290.41;4917835;29;20494;-78
2023/05/13 01:52:09;;;;;;;2.50;2.30;;;10.10;99.90;;;10.73;100.00;98286.97;4919632;29;20509;-77
2023/05/13 01:54:39;;;;;;;3.40;2.50;;;10.00;99.90;;;10.75;100.00;98289.44;4920176;29;21145;-77
2023/05/13 01:57:08;;;;;;;3.97;2.17;;;10.00;99.90;;;10.74;100.00;98295.66;4925194;29;20498;-77
2023/05/13 01:59:36;;;;;;;3.97;2.50;;;10.00;99.90;;;10.72;100.00;98293.22;4921335;29;20503;-77
2023/05/13 02:02:05;;;;;;;12.70;2.73;;;10.00;99.90;;;10.66;100.00;98291.31;4920516;29;20514;-77
2023/05/13 02:04:35;;;;;;;3.53;2.40;;;10.00;99.90;;;10.65;100.00;98299.34;4922185;29;20501;-77
2023/05/13 02:07:04;;;;;;;4.30;2.50;;;10.00;99.90;;;10.61;100.00;98293.69;4921163;29;21242;-78
2023/05/13 02:09:33;;;;;;;6.50;2.57;;;10.00;99.90;;;10.59;100.00;98301.69;4921647;29;20548;-77
2023/05/13 02:12:04;;;;;;;10.40;2.50;;;9.90;99.90;;;10.57;100.00;98302.88;4921754;29;21264;-77
2023/05/13 02:14:33;;;;;;;2.60;2.40;;;9.90;99.90;;;10.58;100.00;98299.28;4924766;29;20569;-77
2023/05/13 02:17:03;;;;;;;1.90;1.80;;;9.80;99.90;;;10.58;100.00;98300.09;4924990;29;20467;-77
2023/05/13 02:19:31;;;;;;;3.43;2.90;;;9.80;99.90;;;10.53;100.00;98297.19;4925475;29;20471;-77
2023/05/13 02:22:00;;;;;;;7.13;3.90;;;9.80;99.90;;;10.51;100.00;98301.81;4924096;29;20647;-77
2023/05/13 02:24:33;;;;;;;2.60;2.23;;;9.80;99.90;;;10.50;100.00;98300.16;4924195;29;21031;-77
2023/05/13 02:27:02;;;;;;;4.23;2.67;;;9.80;99.90;;;10.48;100.00;98307.38;4925062;29;20473;-76
2023/05/13 02:29:31;;;;;;;5.07;2.97;;;9.80;99.90;;;10.44;100.00;98306.13;4924613;29;20498;-77
2023/05/13 02:32:00;;;;;;;5.10;2.60;;;9.80;99.90;;;10.40;100.00;98309.28;4921443;29;21059;-78
2023/05/13 02:34:29;;;;;;;6.07;2.20;;;9.80;99.90;;;10.38;100.00;98314.66;4923426;29;20478;-77
2023/05/13 02:36:58;;;;;;;4.50;2.57;;;9.70;99.90;;;10.38;100.00;98308.63;4924256;29;21038;-77
2023/05/13 02:39:26;;;;;;;10.47;2.40;;;9.70;99.90;;;10.31;100.00;98305.13;4924146;29;20566;-77
2023/05/13 02:41:55;;;;;;;4.63;2.63;;;9.70;99.90;;;10.31;100.00;98305.13;4923406;29;20463;-77
2023/05/13 02:44:25;;;;;;;4.90;2.60;;;9.60;99.90;;;10.31;100.00;98305.13;4916684;29;20499;-77
2023/05/13 02:46:53;;;;;;;4.03;2.37;;;9.60;99.90;;;10.29;100.00;98294.84;4920335;29;20562;-77
2023/05/13 02:49:21;;;;;;;4.73;2.80;;;9.60;99.90;;;10.29;100.00;98294.03;4921405;29;20463;-77
2023/05/13 02:51:50;;;;;;;9.97;2.70;;;9.60;99.90;;;10.28;100.00;98298.44;4917697;29;20500;-77
2023/05/13 02:54:20;;;;;;;3.90;2.80;;;9.50;99.90;;;10.28;100.00;98295.81;4920006;29;20564;-77
2023/05/13 02:56:49;;;;;;;2.67;2.47;;;9.60;99.90;;;10.28;100.00;98298.44;4921214;29;20466;-78
2023/05/13 02:59:17;;;;;;;7.53;2.70;;;9.50;99.90;;;10.22;100.00;98293.91;4924214;29;20833;-77
2023/05/13 03:01:48;;;;;;;7.07;2.53;;;9.50;99.90;;;10.21;100.00;98296.69;4922539;29;20498;-77
2023/05/13 03:04:18;;;;;;;7.30;2.47;;;9.50;99.90;;;10.22;100.00;98291.31;4924255;29;20474;-77
2023/05/13 03:06:47;;;;;;;5.60;2.73;;;9.50;99.90;;;10.20;100.00;98295.09;4923526;29;20991;-77
2023/05/13 03:09:15;;;;;;;14.43;9.20;;;9.50;99.90;;;10.13;100.00;98293.16;4922888;29;20529;-76
2023/05/13 03:11:43;;;;;;;2.80;2.50;;;9.50;99.90;;;10.11;100.00;98291.72;4925448;29;20987;-77
2023/05/13 03:14:13;;;;;;;5.20;2.40;;;9.50;99.90;;;10.10;100.00;98290.06;4924909;29;20570;-77
2023/05/13 03:16:43;;;;;;;4.23;2.30;;;9.50;99.90;;;10.10;100.00;98288.28;4925305;29;20478;-77
2023/05/13 03:19:13;;;;;;;3.90;2.87;;;9.40;99.90;;;10.11;100.00;98287.31;4924552;29;20635;-77
2023/05/13 03:21:42;;;;;;;4.63;2.70;;;9.40;99.90;;;10.09;100.00;98288.47;4927256;29;20467;-77
2023/05/13 03:24:11;;;;;;;8.23;3.40;;;9.40;99.90;;;10.07;100.00;98290.44;4925347;29;20502;-75
2023/05/13 03:26:40;;;;;;;12.20;5.20;;;9.40;99.90;;;10.04;100.00;98291.59;4922932;29;20545;-76
2023/05/13 03:29:10;;;;;;;13.60;3.40;;;9.40;99.90;;;10.07;100.00;98291.25;4926338;29;20521;-77
2023/05/13 03:31:38;;;;;;;3.63;3.00;;;9.30;99.90;;;10.05;100.00;98293.25;4922566;29;20474;-77
2023/05/13 03:34:07;;;;;;;44.83;19.00;;;9.40;99.90;;;10.04;100.00;98291.59;4921768;29;20561;-76
2023/05/13 03:36:37;;;;;;;2.73;2.53;;;9.40;99.90;;;10.03;100.00;98297.03;4922802;29;20462;-76
2023/05/13 03:39:06;;;;;;;4.70;2.90;;;9.40;99.90;;;10.01;100.00;98299.81;4922234;29;20462;-76
2023/05/13 03:41:35;;;;;;;3.37;2.60;;;9.30;99.90;;;9.99;100.00;98298.38;4923126;29;20526;-77
2023/05/13 03:44:05;;;;;;;7.37;2.53;;;9.30;99.90;;;9.96;100.00;98291.66;4928115;29;20498;-77
2023/05/13 03:46:33;;;;;;;5.70;3.23;;;9.30;99.90;;;9.95;100.00;98297.09;4927746;29;21217;-77
2023/05/13 03:49:02;;;;;;;6.87;2.90;;;9.30;99.90;;;9.95;100.00;98297.91;4925161;29;21172;-77
2023/05/13 03:51:33;;;;;;;5.80;2.70;;;9.30;99.90;;;9.95;100.00;98290.06;4927360;29;20561;-77
2023/05/13 03:54:03;;;;;;;3.00;2.70;;;9.20;99.90;;;9.95;100.00;98297.09;4925971;29;20470;-77
2023/05/13 03:56:32;;;;;;;7.70;2.40;;;9.20;99.90;;;9.96;100.00;98298.72;4927261;29;20488;-77
2023/05/13 03:59:03;;;;;;;6.50;2.50;;;9.20;99.90;;;9.97;100.00;98301.16;4925024;29;20471;-76
2023/05/13 04:01:32;;;;;;;3.40;2.77;;;9.30;99.90;;;9.98;100.00;98300.16;4926087;29;20962;-78
2023/05/13 04:04:01;;;;;;;4.33;3.13;;;9.30;99.90;;;9.98;100.00;98307.19;4924052;29;20502;-75
2023/05/13 04:06:32;;;;;;;3.30;2.30;;;9.30;99.90;;;9.97;100.00;98316.81;4921060;29;20561;-78
2023/05/13 04:09:03;;;;;;;5.67;2.63;;;9.30;99.90;;;9.98;100.00;98313.22;4923391;29;20499;-77
2023/05/13 04:11:32;;;;;;;4.70;2.77;;;9.30;99.90;;;10.00;100.00;98320.88;4924078;29;20471;-78
2023/05/13 04:14:01;;;;;;;9.00;2.97;;;9.30;99.90;;;9.98;100.00;98308.00;4925473;29;21012;-77
2023/05/13 04:16:30;;;;;;;2.80;2.40;;;9.30;99.90;;;9.99;100.00;98309.63;4927684;29;20470;-78
2023/05/13 04:18:59;;;;;;;3.90;2.63;;;9.30;99.90;;;10.01;100.00;98312.06;4927801;29;20562;-78
2023/05/13 04:21:27;;;;;;;5.80;2.53;;;9.30;99.90;;;10.03;100.00;98321.31;4935193;29;20470;-77
2023/05/13 04:23:56;;;;;;;5.30;2.63;;;9.30;99.90;;;10.03;100.00;98323.94;4921328;29;20533;-75
2023/05/13 04:26:26;;;;;;;8.50;2.83;;;9.40;99.90;;;10.03;100.00;98323.16;4923847;29;20593;-77
2023/05/13 04:28:54;;;;;;;4.27;2.30;;;9.40;99.90;;;10.02;100.00;98324.13;4921461;29;20570;-77
2023/05/13 04:31:23;;;;;;;8.30;3.67;;;9.40;99.90;;;10.04;100.00;98328.19;4918171;29;20573;-77
2023/05/13 04:33:53;;;;;;;4.00;2.70;;;9.30;99.90;;;10.05;100.00;98324.59;4923664;29;20478;-77
2023/05/13 04:36:22;;;;;;;19.03;3.10;;;9.40;99.90;;;10.07;100.00;98327.81;4921225;29;21297;-77
2023/05/13 04:38:51;;;;;;;3.90;3.10;;;9.40;99.90;;;10.10;100.00;98331.88;4920165;29;20566;-79
2023/05/13 04:41:20;;;;;;;3.60;2.60;;;9.40;99.90;;;10.14;100.00;98327.97;4925413;29;20555;-78
2023/05/13 04:43:50;;;;;;;3.83;3.00;;;9.50;99.90;;;10.15;100.00;98329.59;4926351;29;20559;-78
2023/05/13 04:46:19;;;;;;;3.20;2.43;;;9.50;99.90;;;10.17;100.00;98338.06;4927458;29;20525;-78
2023/05/13 04:48:48;;;;;;;2.50;2.30;;;9.50;99.90;;;10.22;100.00;98340.97;4926752;29;20466;-78
2023/05/13 04:51:17;;;;;;;4.53;3.10;;;9.50;99.90;;;10.27;100.00;98333.41;4923170;29;20907;-77
2023/05/13 04:53:46;;;;;;;4.43;3.33;;;9.60;99.90;;;10.30;100.00;98333.06;4927382;29;20475;-78
2023/05/13 04:56:15;;;;;;;7.23;3.00;;;9.60;99.90;;;10.31;100.00;98339.88;4928389;29;20602;-78
2023/05/13 04:58:44;;;;;;;4.33;3.23;;;9.70;99.90;;;10.32;100.00;98335.47;4927069;29;20478;-78
2023/05/13 05:01:14;;;;;;;12.00;2.83;;;9.70;99.90;;;10.34;100.00;98339.56;4927998;29;21048;-78
2023/05/13 05:03:42;;;;;;;8.83;3.43;;;9.70;99.90;;;10.38;100.00;98347.81;4927098;29;20511;-78
2023/05/13 05:06:11;;;;;;;4.17;3.10;;;9.70;99.90;;;10.38;100.00;98340.81;4926447;29;20502;-78
2023/05/13 05:08:39;;;;;;;3.27;2.73;;;9.70;99.90;;;10.41;100.00;98337.81;4926776;29;20596;-78
2023/05/13 05:11:09;;;;;;;4.60;3.30;;;9.70;99.90;;;10.45;100.00;98346.13;4924799;29;20970;-78
2023/05/13 05:13:38;;;;;;;11.23;2.77;;;9.80;99.90;;;10.47;100.00;98341.53;4926398;29;20887;-78
2023/05/13 05:16:07;;;;;;;3.70;2.87;;;9.80;99.90;;;10.49;100.00;98350.00;4927754;29;21391;-77
2023/05/13 05:18:39;;;;;;;3.30;2.80;;;9.80;99.90;;;10.49;100.00;98357.84;4927857;29;20478;-78
2023/05/13 05:21:09;;;;;;;3.90;2.90;;;9.90;99.90;;;10.49;100.00;98350.81;4925516;29;20549;-78
2023/05/13 05:23:38;;;;;;;6.53;3.40;;;9.80;99.90;;;10.51;100.00;98356.72;4927329;29;20602;-78
2023/05/13 05:26:06;;;;;;;10.60;3.03;;;9.90;99.90;;;10.56;100.00;98361.38;4926520;29;20511;-78
2023/05/13 05:28:42;;;;;;;4.70;3.93;;;9.80;99.90;;;10.57;100.00;98361.22;4926151;29;21619;-77
2023/05/13 05:31:11;;;;;;;6.20;2.83;;;9.90;99.90;;;10.64;100.00;98363.94;4926188;29;21042;-78
2023/05/13 05:33:41;;;;;;;3.00;2.37;;;10.00;99.90;;;10.71;100.00;98366.63;4926119;29;20546;-78
2023/05/13 05:36:10;;;;;;;8.03;3.80;;;10.00;99.90;;;10.77;100.00;98358.06;4927642;29;20471;-78
2023/05/13 05:38:39;;;;;;;5.80;3.67;;;10.10;99.90;;;10.84;100.00;98366.81;4925301;29;20470;-78
2023/05/13 05:41:08;;;;;;;7.53;3.37;;;10.20;99.90;;;10.90;100.00;98366.06;4926388;29;20542;-78
2023/05/13 05:43:36;;;;;;;6.53;3.90;;;10.20;99.90;;;10.95;100.00;98364.56;4926438;29;20470;-78
2023/05/13 05:46:05;;;;;;;3.20;2.90;;;10.30;99.90;;;11.01;100.00;98373.47;4926817;29;20506;-78
2023/05/13 05:48:34;;;;;;;5.87;3.27;;;10.30;99.90;;;11.05;100.00;98364.28;4925503;29;20502;-78
2023/05/13 05:51:06;;;;;;;7.83;3.57;;;10.40;99.90;;;11.10;100.00;98367.16;4927474;29;20565;-77
2023/05/13 05:53:36;;;;;;;4.63;3.17;;;10.40;99.90;;;11.15;100.00;98366.59;4925948;29;20470;-78
2023/05/13 05:56:05;;;;;;;3.50;3.20;;;10.50;99.90;;;11.19;100.00;98366.06;4926803;29;20500;-78
2023/05/13 05:58:34;;;;;;;14.63;3.10;;;10.50;99.90;;;11.24;100.00;98368.97;4927299;29;20537;-77
2023/05/13 06:01:04;;;;;;;3.43;3.13;;;10.60;99.90;;;11.31;100.00;98358.56;4927196;29;20470;-77
2023/05/13 06:03:32;;;;;;;5.40;3.53;;;10.60;99.90;;;11.36;100.00;98366.66;4926310;29;20503;-78
2023/05/13 06:06:01;;;;;;;6.17;2.57;;;10.70;99.90;;;11.41;100.00;98369.56;4926786;29;20549;-78
2023/05/13 06:08:31;;;;;;;4.80;2.83;;;10.80;99.90;;;11.46;100.00;98367.19;4924871;29;20547;-78
2023/05/13 06:10:59;;;;;;;3.50;3.20;;;10.80;99.90;;;11.50;100.00;98371.88;4925739;29;20466;-78
2023/05/13 06:13:28;;;;;;;3.40;3.00;;;10.80;99.90;;;11.56;100.00;98376.38;4925276;29;20490;-78
2023/05/13 06:15:56;;;;;;;4.40;3.50;;;10.90;99.90;;;11.60;100.00;98372.38;4927221;29;20490;-78
2023/05/13 06:18:26;;;;;;;7.20;3.40;;;11.00;99.90;;;11.65;100.00;98376.25;4924972;29;20469;-79
2023/05/13 06:20:55;;;;;;;5.83;3.67;;;11.00;99.90;;;11.71;100.00;98367.69;4925984;29;20505;-78
2023/05/13 06:23:26;;;;;;;8.57;3.73;;;11.00;99.90;;;11.76;100.00;98365.31;4925229;29;20521;-78
2023/05/13 06:25:57;;;;;;;9.60;4.67;;;11.20;99.90;;;11.82;100.00;98369.81;4924000;29;20520;-78
2023/05/13 06:28:26;;;;;;;6.07;3.40;;;11.10;99.90;;;11.86;100.00;98373.69;4924257;29;20491;-77
2023/05/13 06:30:54;;;;;;;5.03;3.43;;;11.20;99.90;;;11.91;100.00;98371.31;4925752;29;20492;-77
2023/05/13 06:33:23;;;;;;;5.87;3.70;;;11.20;99.90;;;11.95;100.00;98373.38;4925282;29;20914;-77
2023/05/13 06:35:52;;;;;;;6.90;4.03;;;11.30;99.90;;;12.00;100.00;98375.44;4929177;29;20569;-78
2023/05/13 06:38:21;;;;;;;4.00;3.20;;;11.40;99.90;;;12.04;100.00;98374.06;4929624;29;20477;-78
2023/05/13 06:40:50;;;;;;;5.60;3.77;;;11.40;99.90;;;12.09;100.00;98374.31;4928774;29;20499;-78
2023/05/13 06:43:20;;;;;;;4.43;3.27;;;11.40;99.90;;;12.15;100.00;98372.75;4930667;29;20522;-78
2023/05/13 06:45:49;;;;;;;4.30;2.97;;;11.40;99.90;;;12.18;100.00;98373.19;4929588;29;20478;-78
2023/05/13 06:48:19;;;;;;;14.63;3.77;;;11.50;99.90;;;12.23;100.00;98368.16;4929611;29;20478;-77
2023/05/13 06:50:48;;;;;;;6.27;3.43;;;11.60;99.90;;;12.28;100.00;98372.84;4929354;29;20901;-78
2023/05/13 06:53:17;;;;;;;6.17;3.20;;;11.60;99.90;;;12.33;100.00;98375.69;4928435;29;20505;-77
2023/05/13 06:55:45;;;;;;;20.73;3.20;;;11.70;99.90;;;12.37;100.00;98377.78;4929745;29;20470;-78
2023/05/13 06:58:14;;;;;;;4.37;3.17;;;11.70;99.90;;;12.40;100.00;98374.75;4926935;29;20511;-77
2023/05/13 07:00:45;;;;;;;2.67;2.40;;;11.80;99.90;;;12.43;100.00;98371.75;4928500;29;20632;-77
2023/05/13 07:03:14;;;;;;;4.93;2.80;;;11.70;99.90;;;12.51;100.00;98374.25;4927603;29;20471;-77
2023/05/13 07:05:42;;;;;;;7.80;2.83;;;11.80;99.90;;;12.58;100.00;98364.59;4928349;29;20550;-78
2023/05/13 07:08:16;;;;;;;5.97;2.97;;;11.90;99.90;;;12.65;100.00;98369.91;4928320;29;20541;-78
2023/05/13 07:10:45;;;;;;;2.57;2.27;;;12.00;99.90;;;12.70;100.00;98364.09;4928839;29;21175;-78
2023/05/13 07:13:14;;;;;;;4.17;2.43;;;12.00;99.90;;;12.77;100.00;98362.31;4927693;29;20486;-79
2023/05/13 07:15:44;;;;;;;4.00;2.37;;;12.10;99.90;;;12.83;100.00;98374.66;4928496;29;20591;-79
2023/05/13 07:18:13;;;;;;;3.60;2.33;;;12.10;99.90;;;12.89;100.00;98366.00;4929512;29;20501;-78
2023/05/13 07:20:42;;;;;;;5.73;2.17;;;12.20;99.90;;;12.94;100.00;98361.00;4929452;29;20454;-78
2023/05/13 07:23:10;;;;;;;2.00;1.70;;;12.30;99.90;;;13.02;100.00;98366.06;4928695;29;20498;-78
2023/05/13 07:25:39;;;;;;;8.03;2.30;;;12.50;99.90;;;13.08;100.00;98360.06;4928804;29;20506;-78
2023/05/13 07:28:08;;;;;;;3.53;1.93;;;12.60;99.90;;;13.15;100.00;98358.31;4926844;29;20522;-79
2023/05/13 07:30:40;;;;;;;2.60;1.87;;;12.70;99.90;;;13.24;100.00;98359.75;4929055;29;20496;-79
2023/05/13 07:33:10;;;;;;;3.13;2.13;;;12.60;99.90;;;13.31;100.00;98362.41;4928183;29;21311;-78
2023/05/13 07:35:38;;;;;;;1.77;1.67;;;12.70;99.90;;;13.38;100.00;98348.28;4927526;29;20553;-82
2023/05/13 07:38:10;;;;;;;2.20;1.87;;;12.70;99.90;;;13.46;100.00;98357.81;4927544;29;20470;-78
2023/05/13 07:40:40;;;;;;;2.63;1.93;;;12.80;99.90;;;13.52;100.00;98349.13;4927769;29;20497;-80
2023/05/13 07:43:10;;;;;;;2.50;1.63;;;12.90;99.90;;;13.57;100.00;98357.25;4929712;29;20958;-78
2023/05/13 07:45:41;;;;;;;2.00;1.73;;;12.90;99.90;;;13.63;100.00;98353.81;4928329;29;21270;-78
2023/05/13 07:48:11;;;;;;;2.03;1.83;;;13.00;99.90;;;13.69;100.00;98352.19;4928135;29;20862;-79
2023/05/13 07:50:40;;;;;;;1.87;1.70;;;13.10;99.90;;;13.75;100.00;98354.03;4928434;29;20962;-78
2023/05/13 07:53:09;;;;;;;2.00;1.80;;;13.10;99.90;;;13.83;100.00;98352.03;4928512;29;21009;-79
2023/05/13 07:55:39;;;;;;;2.60;2.00;;;13.30;99.90;;;13.89;100.00;98348.59;4927841;29;20971;-79
2023/05/13 07:58:07;;;;;;;1.77;1.67;;;13.50;99.90;;;13.95;100.00;98350.41;4929142;29;20569;-79
2023/05/13 08:00:36;;;;;;;3.87;2.10;;;13.50;99.90;;;13.98;100.00;98347.41;4927190;29;20513;-78
2023/05/13 08:03:05;;;;;;;2.23;2.00;;;13.40;99.90;;;14.04;100.00;98351.03;4926636;29;20526;-78
2023/05/13 08:05:36;;;;;;;3.17;1.83;;;13.40;99.90;;;14.08;100.00;98347.00;4930980;29;20535;-78
2023/05/13 08:08:07;;;;;;;6.27;1.90;;;13.50;99.90;;;14.12;100.00;98348.22;4930346;29;20553;-79
2023/05/13 08:10:36;;;;;;;2.20;1.97;;;13.50;99.90;;;14.20;100.00;98349.81;4927622;29;20843;-79
2023/05/13 08:13:04;;;;;;;3.87;2.10;;;13.60;99.90;;;14.24;100.00;98343.97;4926855;29;20478;-79
2023/05/13 08:15:33;;;;;;;3.87;1.70;;;13.60;99.90;;;14.27;100.00;98342.75;4927772;29;20466;-79
2023/05/13 08:18:02;;;;;;;2.60;1.97;;;13.60;99.90;;;14.33;100.00;98345.41;4928837;29;20477;-79
2023/05/13 08:20:31;;;;;;;2.10;1.93;;;13.60;99.90;;;14.38;100.00;98350.88;4927629;29;21230;-79
2023/05/13 08:23:01;;;;;;;2.80;2.27;;;13.80;99.90;;;14.44;100.00;98351.88;4926770;29;20514;-78
2023/05/13 08:25:29;;;;;;;2.27;2.07;;;13.80;99.90;;;14.50;100.00;98351.06;4927652;29;20506;-79
2023/05/13 08:27:58;;;;;;;2.70;2.00;;;13.80;99.90;;;14.55;100.00;98357.34;4926291;29;21012;-78
2023/05/13 08:30:26;;;;;;;5.80;2.10;;;14.00;99.90;;;14.60;100.00;98351.47;4927426;29;20471;-80
2023/05/13 08:32:55;;;;;;;3.00;1.87;;;14.00;99.90;;;14.64;100.00;98347.41;4929385;29;20869;-79
2023/05/13 08:35:24;;;;;;;10.37;2.17;;;14.10;99.90;;;14.68;100.00;98346.00;4927841;29;20589;-78
2023/05/13 08:37:53;;;;;;;1.63;1.53;;;14.20;99.90;;;14.75;100.00;98346.75;4927260;29;20467;-79
2023/05/13 08:40:23;;;;;;;2.03;1.60;;;14.20;99.90;;;14.79;100.00;98352.41;4926995;29;20498;-79
2023/05/13 08:42:57;;;;;;;3.20;2.03;;;14.20;99.90;;;14.86;100.00;98348.75;4927382;29;20506;-79
2023/05/13 08:45:30;;;;;;;2.80;1.70;;;14.40;99.90;;;14.93;100.00;98346.09;4927870;29;20465;-78
2023/05/13 08:48:01;;;;;;;2.23;1.90;;;14.40;99.90;;;14.95;100.00;98344.91;4927502;29;20945;-79
2023/05/13 08:50:30;;;;;;;5.30;2.00;;;14.40;99.90;;;15.01;100.00;98338.00;4926587;29;20498;-79
2023/05/13 08:53:00;;;;;;;2.60;2.27;;;14.40;99.90;;;15.05;100.00;98347.09;4928200;29;20961;-79
2023/05/13 08:55:30;;;;;;;1.83;1.60;;;14.40;99.90;;;15.10;100.00;98347.28;4926985;29;20498;-78
2023/05/13 08:57:59;;;;;;;7.20;2.10;;;14.50;99.90;;;15.15;100.00;98349.28;4926349;29;20522;-80
2023/05/13 09:00:28;;;;;;;3.73;2.40;;;14.60;99.90;;;15.21;100.00;98328.19;4926942;29;21053;-78
2023/05/13 09:02:57;;;;;;;4.33;2.20;;;14.80;99.90;;;15.32;100.00;98351.25;4926396;29;20551;-79
2023/05/13 09:05:26;;;;;;;4.03;1.70;;;14.80;99.90;;;15.40;100.00;98352.84;4926772;29;21446;-79
2023/05/13 09:07:56;;;;;;;3.27;2.17;;;15.00;99.90;;;15.41;100.00;98347.34;4926203;29;20490;-79
2023/05/13 09:10:25;;;;;;;3.87;1.93;;;15.00;99.90;;;15.47;100.00;98349.16;4926064;29;21283;-79
2023/05/13 09:12:55;;;;;;;2.53;2.20;;;15.10;99.90;;;15.51;97.60;98355.66;4926797;29;20945;-79
2023/05/13 09:15:26;;;;;;;4.07;2.00;;;15.10;99.90;;;15.55;99.05;98354.19;4927018;29;20729;-79
2023/05/13 09:17:59;;;;;;;2.10;1.90;;;15.00;99.90;;;15.63;98.52;98352.34;4926116;29;20474;-78
2023/05/13 09:20:28;;;;;;;3.67;2.17;;;15.10;99.90;;;15.66;98.30;98336.91;4926108;29;20470;-78
2023/05/13 09:23:02;;;;;;;2.40;1.63;;;15.10;99.90;;;15.77;99.33;98333.59;4927855;29;20490;-78
2023/05/13 09:25:32;;;;;;;2.27;1.80;;;15.20;99.90;;;15.81;99.43;98336.63;4926850;29;20525;-79
2023/05/13 09:28:04;;;;;;;2.50;2.27;;;15.30;99.90;;;15.86;97.96;98332.31;4926959;29;21194;-79
2023/05/13 09:30:39;;;;;;;3.60;2.07;;;15.40;99.90;;;15.92;95.58;98341.22;4927023;29;20454;-79
2023/05/13 09:33:10;;;;;;;3.10;2.53;;;15.40;99.90;;;15.95;93.28;98327.59;4924779;29;20548;-79
2023/05/13 09:35:41;;;;;;;4.13;2.10;;;15.40;99.90;;;15.98;93.72;98330.59;4926342;29;20506;-78
2023/05/13 09:38:16;;;;;;;8.13;2.50;;;15.30;99.90;;;16.10;91.10;98343.94;4925446;29;20466;-78
2023/05/13 09:40:51;;;;;;;3.93;2.30;;;15.70;99.90;;;16.13;93.99;98343.50;4927925;29;20583;-79
2023/05/13 09:43:24;;;;;;;4.93;2.43;;;15.60;99.90;;;16.17;93.46;98334.13;4926085;29;20542;-78
2023/05/13 09:45:54;;;;;;;3.73;2.00;;;15.60;99.90;;;16.20;93.90;98338.97;4925903;29;21045;-79
2023/05/13 09:48:25;;;;;;;2.43;1.80;;;15.50;99.90;;;16.22;89.90;98342.19;4924811;29;20605;-78
2023/05/13 09:50:56;;;;;;;3.67;2.20;;;15.70;99.90;;;16.21;91.17;98337.94;4926175;29;20473;-79
2023/05/13 09:53:25;;;;;;;7.37;2.80;;;15.70;99.90;;;16.25;93.50;98339.13;4924828;29;20977;-78
2023/05/13 09:55:57;;;;;;;2.50;2.10;;;15.70;99.90;;;16.29;94.13;98342.13;4925003;29;20462;-79
2023/05/13 09:58:29;;;;;;;8.50;2.27;;;15.80;99.90;;;16.35;94.50;98339.44;4925439;29;20490;-79
2023/05/13 10:00:59;;;;;;;5.47;2.10;;;15.90;99.90;;;16.40;93.63;98344.88;4926028;29;20467;-80
2023/05/13 10:03:30;;;;;;;5.33;2.03;;;15.90;99.90;;;16.42;93.69;98334.91;4924987;29;20839;-79
2023/05/13 10:06:00;;;;;;;6.90;2.43;;;15.90;99.90;;;16.43;94.01;98333.91;4927061;29;20554;-79
2023/05/13 10:08:31;;;;;;;2.87;2.57;;;15.80;99.90;;;16.45;93.40;98331.81;4925300;29;20496;-78
2023/05/13 10:11:00;;;;;;;5.13;2.40;;;15.90;99.90;;;16.50;94.94;98329.34;4928633;29;20466;-78
2023/05/13 10:13:33;;;;;;;2.77;2.10;;;16.00;99.90;;;16.60;94.39;98331.53;4929371;29;20458;-79
2023/05/13 10:16:02;;;;;;;3.20;2.27;;;16.10;99.90;;;16.64;92.11;98330.06;4929861;29;20545;-78
2023/05/13 10:18:31;;;;;;;3.63;2.10;;;16.20;99.90;;;16.67;91.45;98339.38;4930233;29;20471;-80
2023/05/13 10:21:02;;;;;;;5.83;2.90;;;16.20;99.90;;;16.71;91.15;98335.28;4929880;29;20473;-79
2023/05/13 10:23:32;;;;;;;3.47;2.43;;;16.20;99.90;;;16.72;88.32;98321.88;4929703;29;20505;-79
2023/05/13 10:26:02;;;;;;;3.37;2.20;;;16.30;99.90;;;16.75;88.76;98315.34;4930679;29;20494;-79